DW3485 Glendale RI US current weather conditions

sailwx.info

Wind from 256

Air temperature -5.0° C
Dewpoint -6.1° C

Last reported at 2019-Dec-13 01:00 UTC.
Time now 2019-Dec-13 02:10 UTC

Location: N 41°59' W 071°40'.
View on Google Maps.

See reports from other nearby stations

  
Tides and Currents Weather Stations Pressure Air Temp Water Temp Dewpoint Dewpoint Depression Visibility Wind Speed Wind Dir Waves Ship Positions
date/time (UTC)wind fromknots sea level pressurealtimeterstation pressurevisibilityair tempwater tempwave heightnotes
2019-Dec-13 01:00 256 -5.0
2019-Dec-13 00:45 256 -5.0
2019-Dec-13 00:30 269 0 gusting 1 -5.0
2019-Dec-13 00:15 279 -5.0
2019-Dec-13 00:00 -5.0
2019-Dec-12 23:45 279 -5.0
2019-Dec-12 23:30 -5.0
2019-Dec-12 23:15 -5.0
2019-Dec-12 23:00 -4.4
2019-Dec-12 22:45 -4.4
2019-Dec-12 22:30 -3.9
2019-Dec-12 22:15 279 0 gusting 1 -3.9
2019-Dec-12 22:00 -3.3
2019-Dec-12 21:45 -3.3
2019-Dec-12 21:30 -2.8
2019-Dec-12 21:15 279 -2.2
2019-Dec-12 21:00 279 -1.7
2019-Dec-12 20:45 252 0 gusting 2 -1.7
2019-Dec-12 20:30 296 1 gusting 4 -1.7
2019-Dec-12 20:15 291 1 gusting 3 -1.7
2019-Dec-12 20:00 282 2 gusting 4 -1.1
2019-Dec-12 19:45 261 1 gusting 4 -1.7
2019-Dec-12 19:30 324 3 gusting 6 -1.7
2019-Dec-12 19:15 297 1 gusting 4 -1.7
2019-Dec-12 19:00 315 3 gusting 5 -2.2
2019-Dec-12 18:45 298 3 gusting 5 -2.2
2019-Dec-12 18:30 303 2 gusting 6 -2.2
2019-Dec-12 18:15 294 1 gusting 3 -2.2
2019-Dec-12 18:00 291 3 gusting 6 -2.2
2019-Dec-12 17:45 295 3 gusting 6 -2.8
2019-Dec-12 17:30 254 3 gusting 8 -2.8
2019-Dec-12 17:15 312 3 gusting 7 -2.8
2019-Dec-12 17:00 284 3 gusting 9 -2.8
2019-Dec-12 16:45 255 3 gusting 6 -2.8
2019-Dec-12 16:30 328 3 gusting 6 -3.3
2019-Dec-12 16:15 302 3 gusting 7 -3.3
2019-Dec-12 16:00 303 4 gusting 9 -3.3
2019-Dec-12 15:45 334 4 gusting 8 -3.3
2019-Dec-12 15:30 306 3 gusting 8 -3.3
2019-Dec-12 15:15 314 5 gusting 10 -3.9
2019-Dec-12 15:00 320 4 gusting 8 -3.9
2019-Dec-12 14:45 299 3 gusting 7 -4.4
2019-Dec-12 14:30 295 3 gusting 6 -4.4
2019-Dec-12 14:15 278 2 gusting 6 -5.0
2019-Dec-12 14:00 219 1 gusting 3 -5.6
2019-Dec-12 13:45 266 1 gusting 4 -5.6
2019-Dec-12 13:30 242 0 gusting 3 -6.1
2019-Dec-12 13:15 262 1 gusting 3 -6.7
2019-Dec-12 13:00 281 0 gusting 2 -6.7
2019-Dec-12 12:45 254 0 gusting 2 -7.2
2019-Dec-12 12:30 254 1 gusting 3 -7.2
2019-Dec-12 12:15 234 1 gusting 4 -7.2
2019-Dec-12 12:00 245 1 gusting 3 -7.2
2019-Dec-12 11:45 242 1 gusting 3 -7.2
2019-Dec-12 11:30 241 0 gusting 1 -7.2
2019-Dec-12 11:15 241 0 gusting 2 -7.2
2019-Dec-12 11:00 241 1 gusting 2 -7.2
2019-Dec-12 10:45 238 1 gusting 2 -6.7
2019-Dec-12 10:30 232 0 gusting 1 -6.1
2019-Dec-12 10:15 249 1 gusting 3 -6.1
2019-Dec-12 10:00 244 2 gusting 4 -5.6
2019-Dec-12 09:45 241 2 gusting 5 -5.6
2019-Dec-12 09:30 241 4 gusting 6 -5.6
2019-Dec-12 09:15 240 2 gusting 5 -5.6
2019-Dec-12 09:00 241 2 gusting 4 -5.0
2019-Dec-12 08:45 241 3 gusting 5 -5.0
2019-Dec-12 08:30 247 2 gusting 6 -5.0
2019-Dec-12 08:15 242 3 gusting 4 -4.4
2019-Dec-12 08:00 249 2 gusting 6 -4.4
2019-Dec-12 07:45 256 3 gusting 6 -4.4
2019-Dec-12 07:30 274 3 gusting 6 -3.9
2019-Dec-12 07:00 297 7 gusting 15 -3.9
2019-Dec-12 06:45 280 7 gusting 19 -3.3
2019-Dec-12 06:30 307 9 gusting 23 -3.3
2019-Dec-12 06:15 284 7 gusting 15 -3.3
2019-Dec-12 06:00 301 6 gusting 12 -3.3
2019-Dec-12 05:45 292 6 gusting 11 -2.8
2019-Dec-12 05:30 289 6 gusting 13 -2.8
2019-Dec-12 05:15 285 2 gusting 7 -2.8
2019-Dec-12 05:00 292 2 gusting 6 -2.8
2019-Dec-12 04:45 251 1 gusting 3 -3.9
2019-Dec-12 04:30 212 0 gusting 3 -5.0
2019-Dec-12 04:15 210 -5.0
2019-Dec-12 04:00 210 -4.4
2019-Dec-12 03:45 210 0 gusting 1 -4.4
2019-Dec-12 03:30 210 0 gusting 2 -4.4
2019-Dec-12 03:15 210 0 gusting 2 -4.4
2019-Dec-12 03:00 210 0 gusting 2 -4.4
2019-Dec-12 02:45 210 0 gusting 2 -5.0
2019-Dec-12 02:30 211 -5.0
2019-Dec-12 02:15 210 0 gusting 1 -5.0
2019-Dec-12 02:00 210 -5.0
2019-Dec-12 01:45 210 -5.0
2019-Dec-12 01:30 211 -5.0
2019-Dec-12 01:15 -4.4
2019-Dec-12 01:00 -4.4
2019-Dec-12 00:45 -4.4
2019-Dec-12 00:30 -4.4
2019-Dec-12 00:15 -4.4
2019-Dec-12 00:00 210 -3.9
2019-Dec-11 23:45 -3.9
2019-Dec-11 23:30 211 -3.9
2019-Dec-11 23:15 210 -3.9
2019-Dec-11 23:00 -3.3
2019-Dec-11 22:45 -3.3
2019-Dec-11 22:30 -2.8
2019-Dec-11 22:15 211 -2.8
2019-Dec-11 22:00 221 0 gusting 2 -2.2
2019-Dec-11 21:45 241 0 gusting 1 -1.7
2019-Dec-11 21:30 241 0 gusting 1 -1.1
2019-Dec-11 21:15 241 1 gusting 3 -1.1
2019-Dec-11 21:00 258 1 gusting 3 -0.6
2019-Dec-11 20:45 282 3 gusting 6 -0.6
2019-Dec-11 20:30 284 2 gusting 3 -0.0
2019-Dec-11 20:15 258 2 gusting 4 -0.0
2019-Dec-11 20:00 271 3 gusting 7 -0.6
2019-Dec-11 19:45 262 4 gusting 8 -0.6
2019-Dec-11 19:30 270 3 gusting 6 -0.0
2019-Dec-11 19:15 268 4 gusting 6 -0.6
2019-Dec-11 19:00 304 4 gusting 7 -0.6
2019-Dec-11 18:45 295 4 gusting 10 -0.6
2019-Dec-11 18:30 285 4 gusting 8 -0.6
2019-Dec-11 18:15 286 4 gusting 6 -1.1
2019-Dec-11 18:00 288 4 gusting 8 -1.1
2019-Dec-11 17:45 296 4 gusting 9 -1.1
2019-Dec-11 17:30 280 4 gusting 9 -1.1
2019-Dec-11 17:15 277 4 gusting 11 -1.1
2019-Dec-11 17:00 287 4 gusting 10 -1.7
2019-Dec-11 16:45 277 3 gusting 8 -1.7
2019-Dec-11 16:30 264 2 gusting 6 -1.7
2019-Dec-11 16:15 267 0 gusting 3 -1.7
2019-Dec-11 16:00 251 1 gusting 3 -1.7
2019-Dec-11 15:45 239 1 gusting 2 -1.7
2019-Dec-11 15:30 273 1 gusting 3 -1.7
2019-Dec-11 15:15 291 2 gusting 6 -1.7
2019-Dec-11 15:00 260 1 gusting 3 -1.7
2019-Dec-11 14:45 263 1 gusting 4 -1.7
2019-Dec-11 14:30 260 2 gusting 4 -1.7
2019-Dec-11 14:15 233 1 gusting 3 -1.7
2019-Dec-11 14:00 244 1 gusting 2 -1.7
2019-Dec-11 13:45 253 2 gusting 5 -1.7
2019-Dec-11 13:30 271 1 gusting 3 -1.7
2019-Dec-11 13:15 237 1 gusting 4 -1.7
2019-Dec-11 13:00 235 1 gusting 3 -1.7
2019-Dec-11 12:45 218 1 gusting 3 -1.7
2019-Dec-11 12:30 205 1 gusting 3 -1.7
2019-Dec-11 12:15 270 0 gusting 2 -1.7
2019-Dec-11 12:00 323 3 gusting 6 -1.7
2019-Dec-11 11:45 311 5 gusting 9 -1.7
2019-Dec-11 11:30 300 4 gusting 7 -1.7
2019-Dec-11 11:15 320 5 gusting 7 -1.7
2019-Dec-11 11:00 306 3 gusting 8 -1.1
2019-Dec-11 10:45 305 4 gusting 6 -1.1
2019-Dec-11 10:30 306 4 gusting 9 -1.1
2019-Dec-11 10:15 318 4 gusting 8 -0.6
2019-Dec-11 10:00 351 5 gusting 9 -0.6
2019-Dec-11 09:45 316 4 gusting 7 -0.0
2019-Dec-11 09:30 333 3 gusting 6 -0.0
2019-Dec-11 09:15 322 6 gusting 10 -0.0
2019-Dec-11 09:00 326 7 gusting 13 -0.0
2019-Dec-11 08:45 339 6 gusting 11 0.6
2019-Dec-11 08:30 336 6 gusting 12 0.6
2019-Dec-11 08:15 313 1 gusting 3 0.6
2019-Dec-11 08:00 297 1 gusting 2 1.1
2019-Dec-11 07:45 290 0 gusting 2 1.1
2019-Dec-11 07:30 313 0 gusting 2 1.1
2019-Dec-11 07:15 241 0 gusting 2 1.1
2019-Dec-11 07:00 241 2 gusting 3 1.1
2019-Dec-11 06:45 254 2 gusting 3 1.7
2019-Dec-11 06:30 301 0 gusting 2 1.7
2019-Dec-11 06:15 242 1 gusting 3 2.2
2019-Dec-11 06:00 267 1 gusting 4 2.2
2019-Dec-11 05:45 263 0 gusting 2 2.2
2019-Dec-11 05:30 275 0 gusting 2 2.2
2019-Dec-11 05:15 262 1 gusting 3 2.8
2019-Dec-11 05:00 299 1 gusting 3 2.8
2019-Dec-11 04:45 289 2 gusting 4 3.3
2019-Dec-11 04:30 311 1 gusting 4 3.3
2019-Dec-11 04:15 295 2 gusting 5 3.3
2019-Dec-11 04:00 310 3 gusting 8 3.9
2019-Dec-11 03:45 302 5 gusting 8 3.9
2019-Dec-11 03:30 322 5 gusting 16 4.4
2019-Dec-11 03:15 324 3 gusting 6 4.4
2019-Dec-11 03:00 315 3 gusting 8 5.0
2019-Dec-11 02:45 312 3 gusting 6 5.0
2019-Dec-11 02:30 308 3 gusting 7 5.6
2019-Dec-11 02:15 290 3 gusting 6 5.6
2019-Dec-11 02:00 304 1 gusting 6 5.6